Weather History for Warrenton, VA

Change the Weather History Date:

Thursday, February 14, 2013

  Actual Average (KHEF) Record (KHEF)
Temperature  
Mean Temperature 38 °F -  
Max Temperature 51 °F 45 °F 68 °F (2011)
Min Temperature 26 °F 24 °F 14 °F (2002)
Degree Days  
Heating Degree Days 26    
Moisture  
Dew Point 32 °F    
Average Humidity 84    
Maximum Humidity 100    
Minimum Humidity 47    
Precipitation  
Precipitation 0.02 in - - ()
Sea Level Pressure  
Sea Level Pressure 29.95 in    
Wind  
Wind Speed 1 mph (South)    
Max Wind Speed 8 mph    
Max Gust Speed -    
Visibility 7 miles    
Events      
Averages and records for this station are not official NWS values.
T = Trace of Precipitation, MM = Missing Value Source: NWS Daily Summary

Daily Weather History Graph

Daily Weather History Graph

Search for Another Location

Airport:

Trip Planner

Search our weather history database for the weather conditions in past years. The results will help you decide how hot, cold, wet, or windy it might be!

Date:

Astronomy

Feb. 14, 2013 Rise Set
Actual Time 7:02 AM EST 5:47 PM EST
Civil Twilight 6:35 AM EST 6:15 PM EST
Nautical Twilight 6:04 AM EST 6:46 PM EST
Astronomical Twilight 5:33 AM EST 7:17 PM EST
Moon 9:07 AM EST (2/14) 10:44 PM EST (2/14)
Length of Visible Light 11h 39m
Length of Day
10h 45m
Waxing Crescent, 21% of the Moon is Illuminated
Feb 14
Waxing Crescent
Feb 17
First Quarter
Feb 25
Full
Mar 4
Last Quarter
Mar 11
New

Hourly Weather History & Observations

Time (EST) Temp. Windchill Dew Point Humidity Pressure Visibility Wind Dir Wind Speed Gust Speed Precip Events Conditions
12:15 AM 33.8 °F 30.8 °F 33.8 °F 100% 29.79 in 4.0 mi East 3.5 mph - N/A   Overcast
12:35 AM 32.7 °F - 32.7 °F 100% 29.80 in 3.0 mi Calm Calm - N/A   Scattered Clouds
12:55 AM 31.6 °F - 31.6 °F 100% 29.81 in 1.8 mi Calm Calm - N/A   Mist
1:15 AM 30.9 °F - 30.9 °F 100% 29.81 in 4.0 mi Calm Calm - N/A   Clear
1:35 AM 30.4 °F 26.9 °F 30.4 °F 100% 29.82 in 4.0 mi WNW 3.5 mph - N/A   Scattered Clouds
1:55 AM 31.6 °F - 31.6 °F 100% 29.83 in 2.5 mi Calm Calm - N/A   Scattered Clouds
2:15 AM 30.9 °F - 30.9 °F 100% 29.83 in 1.5 mi Calm Calm - N/A   Scattered Clouds
2:35 AM 29.1 °F - 29.1 °F 100% 29.84 in 2.5 mi Calm Calm - N/A   Clear
2:55 AM 29.8 °F - 29.8 °F 100% 29.85 in 2.0 mi Calm Calm - N/A   Mostly Cloudy
3:15 AM 29.8 °F - 29.8 °F 100% 29.86 in 2.5 mi Calm Calm - N/A   Mostly Cloudy
3:35 AM 30.4 °F - 30.4 °F 100% 29.87 in 2.5 mi Calm Calm - N/A   Scattered Clouds
3:55 AM 31.5 °F - 31.5 °F 100% 29.88 in 2.5 mi Calm Calm - N/A   Clear
4:15 AM 28.6 °F - 28.6 °F 100% 29.89 in 2.0 mi Calm Calm - N/A   Clear
4:35 AM 29.1 °F - 29.1 °F 100% 29.89 in 1.5 mi Calm Calm - N/A   Mist
4:55 AM 28.0 °F - 28.0 °F 100% 29.90 in 1.8 mi Calm Calm - N/A   Mist
5:15 AM 28.2 °F 24.4 °F 28.2 °F 100% 29.92 in 2.5 mi East 3.5 mph - N/A   Clear
5:35 AM 27.1 °F - 27.1 °F 100% 29.92 in 3.0 mi Calm Calm - N/A   Clear
5:55 AM 27.3 °F - 27.3 °F 100% 29.92 in 4.0 mi Calm Calm - N/A   Clear
6:15 AM 26.8 °F - 26.8 °F 100% 29.93 in 2.5 mi Calm Calm - N/A   Clear
6:35 AM 27.3 °F - 27.3 °F 100% 29.93 in 3.0 mi Calm Calm - N/A   Clear
6:55 AM 26.2 °F 20.7 °F 26.2 °F 100% 29.94 in 3.0 mi East 4.6 mph - N/A   Clear
7:15 AM 26.4 °F - 26.4 °F 100% 29.95 in 3.0 mi Calm Calm - N/A   Clear
7:35 AM 27.3 °F - 27.3 °F 100% 29.96 in 4.0 mi Calm Calm - N/A   Clear
7:55 AM 29.8 °F - 29.8 °F 100% 29.98 in 3.0 mi Calm Calm - N/A   Clear
8:15 AM 32.2 °F - 32.2 °F 100% 29.99 in 3.0 mi Calm Calm - N/A   Clear
8:35 AM 34.0 °F - 34.0 °F 100% 29.99 in 2.5 mi Calm Calm - N/A   Clear
8:55 AM 37.0 °F - 37.0 °F 100% 30.00 in 5.0 mi Calm Calm - N/A   Clear
9:15 AM 38.3 °F - 38.3 °F 100% 30.00 in 7.0 mi Calm Calm - N/A   Clear
9:35 AM 40.3 °F - 35.1 °F 82% 30.01 in 10.0 mi Calm Calm - N/A   Clear
9:55 AM 41.0 °F - 35.4 °F 81% 30.01 in 10.0 mi Calm Calm - N/A   Clear
10:15 AM 41.9 °F - 36.0 °F 79% 30.02 in 10.0 mi Calm Calm - N/A   Clear
10:35 AM 42.8 °F 41.1 °F 36.5 °F 78% 30.01 in 10.0 mi ESE 3.5 mph - N/A   Clear
10:55 AM 43.7 °F 42.1 °F 36.5 °F 76% 30.01 in 10.0 mi SE 3.5 mph - N/A   Clear
11:15 AM 45.1 °F - 36.0 °F 70% 30.01 in 10.0 mi Calm Calm - N/A   Clear
11:35 AM 45.7 °F - 35.6 °F 68% 30.01 in 10.0 mi Calm Calm - N/A   Clear
11:55 AM 47.3 °F - 35.8 °F 64% 30.01 in 10.0 mi SW 6.9 mph - N/A   Clear
12:15 PM 48.2 °F - 36.3 °F 63% 30.01 in 10.0 mi SSW 4.6 mph - N/A   Clear
12:35 PM 48.6 °F - 36.1 °F 62% 29.99 in 10.0 mi WSW 4.6 mph - N/A   Clear
12:55 PM 49.5 °F - 37.0 °F 62% 30.00 in 10.0 mi West 4.6 mph - N/A   Clear
1:15 PM 49.3 °F - 37.0 °F 63% 29.98 in 10.0 mi SSE 3.5 mph - N/A   Clear
1:35 PM 50.2 °F - 34.9 °F 56% 29.98 in 10.0 mi Calm Calm - N/A   Clear
1:55 PM 50.2 °F - 35.8 °F 58% 29.97 in 10.0 mi SSW 4.6 mph - N/A   Clear
2:15 PM 50.9 °F - 35.4 °F 55% 29.97 in 10.0 mi West 3.5 mph - N/A   Clear
2:35 PM 50.7 °F - 34.3 °F 53% 29.97 in 10.0 mi Calm Calm - N/A   Clear
2:55 PM 51.3 °F - 33.4 °F 51% 29.97 in 10.0 mi SSW 8.1 mph - N/A   Clear
3:15 PM 51.6 °F - 32.0 °F 47% 29.97 in 10.0 mi WSW 3.5 mph - N/A   Clear
3:35 PM 51.3 °F - 34.7 °F 53% 29.97 in 10.0 mi SW 5.8 mph - N/A   Clear
3:55 PM 51.1 °F - 33.8 °F 52% 29.95 in 10.0 mi Calm Calm - N/A   Clear
4:15 PM 51.1 °F - 34.0 °F 52% 29.95 in 10.0 mi South 4.6 mph - N/A   Clear
4:35 PM 51.1 °F - 34.2 °F 52% 29.95 in 10.0 mi South 3.5 mph - N/A   Clear
4:55 PM 50.7 °F - 34.2 °F 53% 29.97 in 10.0 mi Calm Calm - N/A   Clear
5:15 PM 50.0 °F - 32.5 °F 51% 29.96 in 10.0 mi Calm Calm - N/A   Clear
5:35 PM 48.4 °F - 32.2 °F 54% 29.97 in 10.0 mi Calm Calm - N/A   Clear
5:55 PM 43.3 °F 41.7 °F 33.1 °F 67% 29.97 in 10.0 mi SE 3.5 mph - N/A   Clear
6:15 PM 43.0 °F 40.3 °F 32.0 °F 65% 29.97 in 10.0 mi SE 4.6 mph - N/A   Clear
6:35 PM 40.1 °F 38.0 °F 32.0 °F 73% 29.98 in 10.0 mi SE 3.5 mph - N/A   Clear
6:55 PM 39.9 °F 37.8 °F 32.4 °F 74% 29.97 in 10.0 mi ESE 3.5 mph - N/A   Clear
7:15 PM 39.4 °F 36.1 °F 32.4 °F 76% 29.98 in 10.0 mi ESE 4.6 mph - N/A   Clear
7:35 PM 34.7 °F - 32.0 °F 90% 29.98 in 10.0 mi Calm Calm - N/A   Clear
7:55 PM 33.6 °F - 32.0 °F 94% 29.99 in 10.0 mi Calm Calm - N/A   Clear
8:15 PM 33.1 °F - 31.8 °F 95% 29.99 in 10.0 mi Calm Calm - N/A   Clear
8:35 PM 32.2 °F - 32.0 °F 99% 29.99 in 10.0 mi Calm Calm - N/A   Clear
8:55 PM 33.3 °F - 32.0 °F 95% 29.99 in 10.0 mi Calm Calm - N/A   Clear
9:15 PM 31.8 °F - 31.6 °F 99% 29.99 in 10.0 mi Calm Calm - N/A   Clear
9:35 PM 30.9 °F - 30.9 °F 100% 29.99 in 10.0 mi Calm Calm - N/A   Clear
9:55 PM 30.4 °F - 30.4 °F 100% 29.99 in 10.0 mi Calm Calm - N/A   Clear
10:15 PM 31.3 °F - 31.3 °F 100% 29.98 in 10.0 mi Calm Calm - N/A   Clear
10:35 PM 29.3 °F - 29.3 °F 100% 29.99 in 10.0 mi Calm Calm - N/A   Clear
10:55 PM 29.5 °F - 29.5 °F 100% 29.99 in 10.0 mi Calm Calm - N/A   Clear
11:15 PM 37.6 °F 35.1 °F 32.9 °F 83% 30.00 in 10.0 mi South 3.5 mph - N/A   Clear
11:35 PM 37.6 °F 35.1 °F 32.9 °F 83% 30.00 in 10.0 mi SSW 3.5 mph - N/A   Clear
11:55 PM 36.5 °F 32.7 °F 32.4 °F 85% 30.00 in 10.0 mi South 4.6 mph - N/A   Clear